Time;durP1;ratioP1;P1;durP2;ratioP2;P2;SDS_P1;SDS_P2;PMS_P1;PMS_P2;Temp;Humidity;BMP_temperature;BMP_pressure;BME280_temperature;BME280_humidity;BME280_pressure;Samples;Min_cycle;Max_cycle;Signal;HPM_P1;HPM_P2
2022/05/24 00:01:59;;;;;;;;;;;;;;;13.35;100.00;-25442.28;5054644;28;19928;-78
2022/05/24 00:04:26;;;;;;;;;;;;;;;13.35;100.00;-25442.28;5054982;28;20353;-77
2022/05/24 00:06:51;;;;;;;;;;;;;;;13.32;100.00;-25441.38;5052164;28;19917;-76
2022/05/24 00:09:17;;;;;;;;;;;;;;;13.26;100.00;-25439.78;5053041;28;19917;-75
2022/05/24 00:11:42;;;;;;;;;;;;;;;13.30;100.00;-25440.94;5054473;28;19982;-76
2022/05/24 00:14:11;;;;;;;;;;;;;;;13.27;100.00;-25440.06;5055111;28;19924;-74
2022/05/24 00:16:36;;;;;;;;;;;;;;;13.22;100.00;-25438.75;5051835;28;19993;-78
2022/05/24 00:19:02;;;;;;;;;;;;;;;13.25;100.00;-25439.47;5046091;28;20555;-78
2022/05/24 00:21:28;;;;;;;;;;;;;;;13.26;100.00;-25439.91;5057963;28;20314;-77
2022/05/24 00:23:53;;;;;;;;;;;;;;;13.27;100.00;-25440.22;5062320;28;19925;-78
2022/05/24 00:26:27;;;;;;;;;;;;;;;13.31;100.00;-25441.09;5053510;28;19924;-79
2022/05/24 00:28:52;;;;;;;;;;;;;;;13.26;100.00;-25439.91;5055210;28;20015;-77
2022/05/24 00:31:18;;;;;;;;;;;;;;;13.29;100.00;-25440.66;5075425;28;20515;-78
2022/05/24 00:33:43;;;;;;;;;;;;;;;13.23;100.00;-25439.03;5074779;28;19969;-79
2022/05/24 00:36:09;;;;;;;;;;;;;;;13.25;100.00;-25439.63;5059096;28;19955;-79
2022/05/24 00:38:38;;;;;;;;;;;;;;;13.19;100.00;-25437.72;5068913;28;19924;-78
2022/05/24 00:41:13;;;;;;;;;;;;;;;13.19;100.00;-25437.72;5055494;28;20372;-77
2022/05/24 00:43:40;;;;;;;;;;;;;;;13.14;100.00;-25436.41;5055225;28;19916;-78
2022/05/24 00:46:12;;;;;;;;;;;;;;;13.07;100.00;-25434.38;5086653;28;19965;-79
2022/05/24 00:48:46;;;;;;;;;;;;;;;12.91;100.00;-25430.00;5075300;28;19916;-79
2022/05/24 00:51:12;;;;;;;;;;;;;;;12.82;100.00;-25427.38;5044492;28;20330;-78
2022/05/24 00:53:43;;;;;;;;;;;;;;;12.76;100.00;-25425.59;5060204;28;19920;-79
2022/05/24 00:56:16;;;;;;;;;;;;;;;12.76;100.00;-25425.59;5055355;28;19921;-79
2022/05/24 00:58:46;;;;;;;;;;;;;;;12.75;100.00;-25425.47;5035544;28;20372;-80
2022/05/24 01:01:18;;;;;;;;;;;;;;;12.71;100.00;-25424.16;5048289;28;19921;-75
2022/05/24 01:03:44;;;;;;;;;;;;;;;12.68;100.00;-25423.41;5053756;28;19962;-75
2022/05/24 01:06:09;;;;;;;;;;;;;;;12.72;100.00;-25424.44;5055049;28;20009;-78
2022/05/24 01:08:34;;;;;;;;;;;;;;;12.78;100.00;-25426.03;5076177;28;19923;-77
2022/05/24 01:11:01;;;;;;;;;;;;;;;12.69;100.00;-25423.56;5073947;28;20050;-77
2022/05/24 01:13:28;;;;;;;;;;;;;;;12.72;100.00;-25424.44;5065752;28;19986;-77
2022/05/24 01:15:54;;;;;;;;;;;;;;;12.66;100.00;-25422.69;5065886;28;19946;-78
2022/05/24 01:18:21;;;;;;;;;;;;;;;12.66;100.00;-25422.84;5058081;28;19917;-76
2022/05/24 01:20:50;;;;;;;;;;;;;;;12.67;100.00;-25422.97;5057355;28;19917;-76
2022/05/24 01:23:29;;;;;;;;;;;;;;;12.65;100.00;-25422.53;5050057;28;19921;-79
2022/05/24 01:26:07;;;;;;;;;;;;;;;12.64;100.00;-25422.25;5046416;28;19932;-74
2022/05/24 01:28:43;;;;;;;;;;;;;;;12.68;100.00;-25423.41;5039242;28;19921;-78
2022/05/24 01:31:09;;;;;;;;;;;;;;;12.66;100.00;-25422.84;5069167;28;19920;-76
2022/05/24 01:36:24;;;;;;;;;;;;;;;12.67;100.00;-25423.13;5064797;28;19927;-80
2022/05/24 01:38:56;;;;;;;;;;;;;;;12.64;100.00;-25422.25;5059517;28;20554;-78
2022/05/24 01:41:23;;;;;;;;;;;;;;;12.63;100.00;-25421.81;5077245;28;19920;-79
2022/05/24 01:43:52;;;;;;;;;;;;;;;12.66;100.00;-25422.84;5066547;28;20004;-78
2022/05/24 01:46:19;;;;;;;;;;;;;;;12.66;100.00;-25422.69;5071313;28;20284;-79
2022/05/24 01:48:51;;;;;;;;;;;;;;;12.64;100.00;-25422.25;5057512;28;19968;-76
2022/05/24 01:51:18;;;;;;;;;;;;;;;12.62;100.00;-25421.53;5058854;28;19926;-76
2022/05/24 01:53:48;;;;;;;;;;;;;;;12.61;100.00;-25421.38;5058058;28;20359;-77
2022/05/24 01:56:15;;;;;;;;;;;;;;;12.61;100.00;-25421.38;5052642;28;19924;-77
2022/05/24 01:58:43;;;;;;;;;;;;;;;12.62;100.00;-25421.66;5048130;28;19920;-78
2022/05/24 02:01:13;;;;;;;;;;;;;;;12.62;100.00;-25421.66;5063633;28;19920;-77
2022/05/24 02:03:41;;;;;;;;;;;;;;;12.59;100.00;-25420.78;5066930;28;20384;-78
2022/05/24 02:06:18;;;;;;;;;;;;;;;12.56;100.00;-25420.06;5066703;28;19916;-77
2022/05/24 02:08:43;;;;;;;;;;;;;;;12.59;100.00;-25420.63;5077478;28;19916;-77
2022/05/24 02:11:08;;;;;;;;;;;;;;;12.59;100.00;-25420.63;5057753;28;20272;-79
2022/05/24 02:13:36;;;;;;;;;;;;;;;12.58;100.00;-25420.50;5037676;28;19920;-79
2022/05/24 02:16:03;;;;;;;;;;;;;;;12.59;100.00;-25420.78;5048398;28;20336;-78
2022/05/24 02:18:29;;;;;;;;;;;;;;;12.60;100.00;-25421.09;5076003;28;20007;-78
2022/05/24 02:20:55;;;;;;;;;;;;;;;12.65;100.00;-25422.41;5063525;28;20280;-78
2022/05/24 02:23:20;;;;;;;;;;;;;;;12.68;100.00;-25423.41;5056661;28;19916;-78
2022/05/24 02:25:49;;;;;;;;;;;;;;;12.62;100.00;-25421.66;5092741;28;19920;-77
2022/05/24 02:28:15;;;;;;;;;;;;;;;12.60;100.00;-25420.94;5059787;28;19959;-78
2022/05/24 02:30:43;;;;;;;;;;;;;;;12.55;100.00;-25419.63;5076048;28;19927;-75
2022/05/24 02:33:10;;;;;;;;;;;;;;;12.61;100.00;-25421.22;5093881;28;19920;-77
2022/05/24 02:35:35;;;;;;;;;;;;;;;12.61;100.00;-25421.22;5064334;28;19924;-78
2022/05/24 02:38:01;;;;;;;;;;;;;;;12.61;100.00;-25421.22;5057110;28;19920;-77
2022/05/24 02:43:12;;;;;;;;;;;;;;;12.50;100.00;-25418.16;5055102;28;20441;-79
2022/05/24 02:45:37;;;;;;;;;;;;;;;12.51;100.00;-25418.59;5045144;28;19928;-78
2022/05/24 02:48:03;;;;;;;;;;;;;;;12.47;100.00;-25417.41;5050564;28;19921;-76
2022/05/24 02:50:28;;;;;;;;;;;;;;;12.46;100.00;-25417.13;5067418;28;20407;-79
2022/05/24 02:52:54;;;;;;;;;;;;;;;12.44;100.00;-25416.53;5074680;28;19962;-77
2022/05/24 02:55:20;;;;;;;;;;;;;;;12.45;100.00;-25416.69;5060039;28;19972;-74
2022/05/24 02:57:46;;;;;;;;;;;;;;;12.43;100.00;-25416.09;5055908;28;20550;-79
2022/05/24 03:00:13;;;;;;;;;;;;;;;12.45;100.00;-25416.84;5039469;28;19927;-77
2022/05/24 03:02:39;;;;;;;;;;;;;;;12.42;100.00;-25415.97;5056520;28;19959;-77
2022/05/24 03:05:06;;;;;;;;;;;;;;;12.43;100.00;-25416.25;5062961;28;19968;-79
2022/05/24 03:10:16;;;;;;;;;;;;;;;12.46;100.00;-25416.97;5057434;28;19974;-76
2022/05/24 03:15:25;;;;;;;;;;;;;;;12.37;100.00;-25414.50;5070052;28;19931;-79
2022/05/24 03:17:50;;;;;;;;;;;;;;;12.39;100.00;-25415.09;5050309;28;20335;-78
2022/05/24 03:20:15;;;;;;;;;;;;;;;12.39;100.00;-25415.09;5047619;28;19921;-78
2022/05/24 03:22:43;;;;;;;;;;;;;;;12.43;100.00;-25416.25;5048858;28;19942;-78
2022/05/24 03:25:08;;;;;;;;;;;;;;;12.39;100.00;-25415.09;5056398;28;19920;-78
2022/05/24 03:27:34;;;;;;;;;;;;;;;12.38;100.00;-25414.78;5042345;28;19921;-79
2022/05/24 03:29:59;;;;;;;;;;;;;;;12.33;100.00;-25413.47;5055350;28;19932;-78
2022/05/24 03:32:24;;;;;;;;;;;;;;;12.25;100.00;-25411.13;5056179;28;19920;-78
2022/05/24 03:34:50;;;;;;;;;;;;;;;12.17;100.00;-25408.94;5038594;28;19948;-78
2022/05/24 03:37:17;;;;;;;;;;;;;;;12.14;100.00;-25407.91;5062074;28;20179;-78
2022/05/24 03:39:43;;;;;;;;;;;;;;;12.19;100.00;-25409.53;5071840;28;19924;-78
2022/05/24 03:42:08;;;;;;;;;;;;;;;12.15;100.00;-25408.34;5067347;28;19923;-78
2022/05/24 03:44:35;;;;;;;;;;;;;;;12.16;100.00;-25408.50;5063090;28;19920;-78
2022/05/24 03:47:00;;;;;;;;;;;;;;;12.12;100.00;-25407.47;5069165;28;20014;-78
2022/05/24 03:49:25;;;;;;;;;;;;;;;12.11;100.00;-25407.03;5037093;28;19967;-78
2022/05/24 03:51:51;;;;;;;;;;;;;;;12.13;100.00;-25407.78;5036328;28;19989;-79
2022/05/24 03:54:16;;;;;;;;;;;;;;;12.18;100.00;-25409.22;5052435;28;19912;-77
2022/05/24 03:57:59;;;;;;;;;;;;;;;12.20;100.00;-25409.81;5053239;28;19916;-78
2022/05/24 03:59:27;;;;;;;;;;;;;;;12.20;100.00;-25409.66;5069502;28;20011;-78
2022/05/24 04:01:52;;;;;;;;;;;;;;;12.19;100.00;-25409.53;5054238;28;20345;-78
2022/05/24 04:04:18;;;;;;;;;;;;;;;12.15;100.00;-25408.34;5055099;28;19917;-77
2022/05/24 04:06:43;;;;;;;;;;;;;;;12.14;100.00;-25408.06;5055478;28;20429;-78
2022/05/24 04:09:08;;;;;;;;;;;;;;;12.12;100.00;-25407.31;5035716;28;19927;-78
2022/05/24 04:11:34;;;;;;;;;;;;;;;12.07;100.00;-25405.88;5059723;28;19947;-78
2022/05/24 04:14:01;;;;;;;;;;;;;;;12.13;100.00;-25407.78;5039213;28;20361;-79
2022/05/24 04:16:26;;;;;;;;;;;;;;;12.10;100.00;-25406.88;5071606;28;20358;-78
2022/05/24 04:18:51;;;;;;;;;;;;;;;12.08;100.00;-25406.16;5035496;28;19917;-79
2022/05/24 04:21:16;;;;;;;;;;;;;;;12.03;100.00;-25405.00;5035767;28;20365;-79
2022/05/24 04:23:44;;;;;;;;;;;;;;;12.06;100.00;-25405.56;5058508;28;19932;-79
2022/05/24 04:26:09;;;;;;;;;;;;;;;12.11;100.00;-25407.19;5043017;28;19920;-79
2022/05/24 04:28:35;;;;;;;;;;;;;;;12.11;100.00;-25407.19;5066492;28;19924;-78
2022/05/24 04:31:00;;;;;;;;;;;;;;;12.03;100.00;-25405.00;5059883;28;19970;-80
2022/05/24 04:33:26;;;;;;;;;;;;;;;12.02;100.00;-25404.69;5038885;28;19963;-79
2022/05/24 04:35:52;;;;;;;;;;;;;;;12.05;100.00;-25405.44;5073095;28;19939;-76
2022/05/24 04:38:17;;;;;;;;;;;;;;;12.08;100.00;-25406.31;5054254;28;19920;-78
2022/05/24 04:43:28;;;;;;;;;;;;;;;12.06;100.00;-25405.72;5072964;28;20288;-77
2022/05/24 04:45:55;;;;;;;;;;;;;;;12.07;100.00;-25405.88;5047871;28;19916;-77
2022/05/24 04:48:21;;;;;;;;;;;;;;;12.05;100.00;-25405.44;5036554;28;19933;-77
2022/05/24 04:50:46;;;;;;;;;;;;;;;12.10;100.00;-25406.88;5056052;28;19916;-78
2022/05/24 04:53:14;;;;;;;;;;;;;;;12.10;100.00;-25406.88;5066095;28;19924;-78
2022/05/24 04:55:39;;;;;;;;;;;;;;;12.10;100.00;-25406.88;5066972;28;19964;-79
2022/05/24 04:58:04;;;;;;;;;;;;;;;12.27;100.00;-25411.56;5055026;28;19925;-77
2022/05/24 05:00:30;;;;;;;;;;;;;;;12.31;100.00;-25412.88;5064476;28;20019;-78
2022/05/24 05:02:55;;;;;;;;;;;;;;;12.25;100.00;-25411.00;5053451;28;19927;-78
2022/05/24 05:05:20;;;;;;;;;;;;;;;12.23;100.00;-25410.56;5056767;28;19920;-76
2022/05/24 05:07:45;;;;;;;;;;;;;;;12.17;100.00;-25408.78;5054012;28;19921;-77
2022/05/24 05:10:13;;;;;;;;;;;;;;;11.99;100.00;-25403.81;5077705;28;19928;-76
2022/05/24 05:12:39;;;;;;;;;;;;;;;11.96;100.00;-25402.78;5060453;28;19916;-75
2022/05/24 05:15:05;;;;;;;;;;;;;;;12.06;100.00;-25405.72;5064150;28;19924;-79
2022/05/24 05:17:30;;;;;;;;;;;;;;;12.06;100.00;-25405.72;5054139;28;19962;-77
2022/05/24 05:19:56;;;;;;;;;;;;;;;12.03;100.00;-25404.84;5054538;28;19928;-79
2022/05/24 05:22:22;;;;;;;;;;;;;;;11.95;100.00;-25402.50;5060860;28;20014;-79
2022/05/24 05:24:47;;;;;;;;;;;;;;;12.09;100.00;-25406.59;5048074;28;19929;-79
2022/05/24 05:27:12;;;;;;;;;;;;;;;11.87;100.00;-25400.31;5057528;28;19931;-80
2022/05/24 05:32:26;;;;;;;;;;;;;;;11.96;100.00;-25402.78;5090139;28;19938;-76
2022/05/24 05:34:52;;;;;;;;;;;;;;;11.98;100.00;-25403.38;5067251;28;20002;-79
2022/05/24 05:37:17;;;;;;;;;;;;;;;11.91;100.00;-25401.31;5057592;28;19974;-78
2022/05/24 05:39:44;;;;;;;;;;;;;;;12.03;100.00;-25404.84;5066107;28;19924;-76
2022/05/24 05:42:10;;;;;;;;;;;;;;;12.24;100.00;-25410.84;5070462;28;20055;-74
2022/05/24 05:44:36;;;;;;;;;;;;;;;12.67;100.00;-25423.13;5053359;28;19969;-76
2022/05/24 05:47:01;;;;;;;;;;;;;;;12.60;100.00;-25420.94;5054317;28;19964;-78
2022/05/24 05:49:26;;;;;;;;;;;;;;;12.83;100.00;-25427.50;5054095;28;19986;-78
2022/05/24 05:51:52;;;;;;;;;;;;;;;13.13;100.00;-25435.97;5071865;28;19924;-79
2022/05/24 05:54:21;;;;;;;;;;;;;;;13.41;100.00;-25444.03;5057751;28;19981;-80
2022/05/24 05:56:46;;;;;;;;;;;;;;;13.61;100.00;-25449.84;5057370;28;19921;-80
2022/05/24 05:59:12;;;;;;;;;;;;;;;13.60;100.00;-25449.56;5057160;28;19920;-76
2022/05/24 06:01:37;;;;;;;;;;;;;;;13.80;100.00;-25455.25;5074840;28;19971;-78
2022/05/24 06:04:02;;;;;;;;;;;;;;;13.50;100.00;-25446.66;5057041;28;19916;-79
2022/05/24 06:06:29;;;;;;;;;;;;;;;13.48;100.00;-25446.06;5057362;28;19939;-80
2022/05/24 06:08:54;;;;;;;;;;;;;;;13.42;100.00;-25444.47;5057925;28;19925;-75
2022/05/24 06:11:20;;;;;;;;;;;;;;;13.22;100.00;-25438.59;5057706;28;19995;-80
2022/05/24 06:13:48;;;;;;;;;;;;;;;13.24;100.00;-25439.19;5057571;28;19946;-79
2022/05/24 06:16:14;;;;;;;;;;;;;;;13.42;100.00;-25444.31;5041081;28;20034;-79
2022/05/24 06:18:39;;;;;;;;;;;;;;;13.70;100.00;-25452.19;5075336;28;19928;-79
2022/05/24 06:21:06;;;;;;;;;;;;;;;13.57;100.00;-25448.69;5056249;28;19945;-79
2022/05/24 06:23:34;;;;;;;;;;;;;;;13.51;100.00;-25446.78;5055731;28;19927;-80
2022/05/24 06:26:00;;;;;;;;;;;;;;;13.48;100.00;-25445.91;5066491;28;19923;-79
2022/05/24 06:28:26;;;;;;;;;;;;;;;14.00;100.00;-25460.94;5093818;28;19920;-74
2022/05/24 06:30:52;;;;;;;;;;;;;;;14.42;100.00;-25472.75;5065139;28;19953;-75
2022/05/24 06:33:18;;;;;;;;;;;;;;;14.47;100.00;-25474.06;5075840;28;19916;-75
2022/05/24 06:35:43;;;;;;;;;;;;;;;14.44;100.00;-25473.34;5068355;28;19921;-76
2022/05/24 06:38:09;;;;;;;;;;;;;;;14.54;100.00;-25476.09;5054427;28;19924;-75
2022/05/24 06:40:34;;;;;;;;;;;;;;;14.26;100.00;-25468.09;5072551;28;20424;-76
2022/05/24 06:43:00;;;;;;;;;;;;;;;14.25;100.00;-25467.94;5054997;28;20280;-76
2022/05/24 06:45:25;;;;;;;;;;;;;;;14.31;100.00;-25469.53;5072992;28;19970;-80
2022/05/24 06:47:50;;;;;;;;;;;;;;;14.51;100.00;-25475.38;5055343;28;20015;-79
2022/05/24 06:50:15;;;;;;;;;;;;;;;14.86;100.00;-25485.13;5055812;28;20007;-79
2022/05/24 06:52:41;;;;;;;;;;;;;;;15.33;100.00;-25498.53;5038335;28;20019;-79
2022/05/24 06:55:07;;;;;;;;;;;;;;;15.33;100.00;-25498.53;5055438;28;19913;-80
2022/05/24 06:57:32;;;;;;;;;;;;;;;14.98;100.00;-25488.63;5055580;28;20301;-81
2022/05/24 07:02:42;;;;;;;;;;;;;;;14.19;100.00;-25466.19;5072622;28;19970;-79
2022/05/24 07:05:10;;;;;;;;;;;;;;;14.33;100.00;-25470.13;5054823;28;20331;-76
2022/05/24 07:07:36;;;;;;;;;;;;;;;13.97;100.00;-25459.91;5054253;28;19956;-79
2022/05/24 07:10:02;;;;;;;;;;;;;;;13.68;100.00;-25451.59;5054554;28;20400;-78
2022/05/24 07:12:28;;;;;;;;;;;;;;;13.54;100.00;-25447.81;5072041;28;20395;-77
2022/05/24 07:14:54;;;;;;;;;;;;;;;13.40;100.00;-25443.88;5054430;28;19923;-75
2022/05/24 07:17:20;;;;;;;;;;;;;;;13.50;100.00;-25446.66;5054879;28;19916;-76
2022/05/24 07:19:46;;;;;;;;;;;;;;;13.69;100.00;-25451.91;5054043;28;19920;-77
2022/05/24 07:22:11;;;;;;;;;;;;;;;13.44;100.00;-25444.91;5054678;28;19917;-79
2022/05/24 07:24:37;;;;;;;;;;;;;;;13.58;100.00;-25448.84;5054278;28;20357;-79
2022/05/24 07:27:04;;;;;;;;;;;;;;;13.39;100.00;-25443.59;5054486;28;19916;-80
2022/05/24 07:29:32;;;;;;;;;;;;;;;13.14;100.00;-25436.28;5054077;28;19981;-75
2022/05/24 07:31:58;;;;;;;;;;;;;;;13.18;100.00;-25437.59;5054860;28;19917;-80
2022/05/24 07:34:23;;;;;;;;;;;;;;;13.04;100.00;-25433.66;5054113;28;19924;-77
2022/05/24 07:36:48;;;;;;;;;;;;;;;13.04;100.00;-25433.66;5054614;28;19920;-80
2022/05/24 07:39:13;;;;;;;;;;;;;;;12.90;100.00;-25429.69;5054640;28;19963;-78
2022/05/24 07:47:07;;;;;;;;;;;;;;;12.95;100.00;-25430.88;5072453;28;19924;-75
2022/05/24 07:49:33;;;;;;;;;;;;;;;12.82;100.00;-25427.38;5071309;28;20292;-78
2022/05/24 07:51:58;;;;;;;;;;;;;;;12.85;100.00;-25428.09;5071566;28;20379;-76
2022/05/24 07:54:24;;;;;;;;;;;;;;;13.13;100.00;-25436.13;5053879;28;19916;-75
2022/05/24 07:56:50;;;;;;;;;;;;;;;13.04;100.00;-25433.66;5037451;28;19924;-79
2022/05/24 07:59:15;;;;;;;;;;;;;;;13.11;100.00;-25435.53;5072050;28;20412;-81
2022/05/24 08:01:40;;;;;;;;;;;;;;;13.39;100.00;-25443.44;5036832;28;19924;-80
2022/05/24 08:04:05;;;;;;;;;;;;;;;13.38;100.00;-25443.16;5054170;28;19928;-80
2022/05/24 08:06:31;;;;;;;;;;;;;;;13.33;100.00;-25441.81;5053873;28;19923;-80
2022/05/24 08:08:56;;;;;;;;;;;;;;;13.73;100.00;-25453.22;5071548;28;20011;-80
2022/05/24 08:11:21;;;;;;;;;;;;;;;14.83;100.00;-25484.25;5054036;28;19943;-81
2022/05/24 08:13:46;;;;;;;;;;;;;;;15.86;100.00;-25513.34;5054150;28;19923;-81
2022/05/24 08:16:12;;;;;;;;;;;;;;;16.40;100.00;-25528.75;5053043;28;19923;-80
2022/05/24 08:18:37;;;;;;;;;;;;;;;16.63;100.00;-25535.28;5053483;28;19917;-78
2022/05/24 08:21:03;;;;;;;;;;;;;;;16.12;100.00;-25520.78;5071820;28;19978;-78
2022/05/24 08:23:28;;;;;;;;;;;;;;;15.54;100.00;-25504.34;5053072;28;20458;-77
2022/05/24 08:25:54;;;;;;;;;;;;;;;14.85;100.00;-25485.00;5036796;28;19921;-77
2022/05/24 08:28:19;;;;;;;;;;;;;;;14.25;100.00;-25467.78;5072302;28;19923;-76
2022/05/24 08:30:45;;;;;;;;;;;;;;;13.59;100.00;-25449.28;5052875;28;19924;-80
2022/05/24 08:33:11;;;;;;;;;;;;;;;13.11;100.00;-25435.53;5053675;28;19927;-82
2022/05/24 08:35:38;;;;;;;;;;;;;;;12.76;100.00;-25425.59;5054066;28;19912;-82
2022/05/24 08:38:04;;;;;;;;;;;;;;;12.70;100.00;-25423.84;5054102;28;19916;-85
2022/05/24 08:40:33;;;;;;;;;;;;;;;12.82;100.00;-25427.22;5053522;28;19956;-83
2022/05/24 08:43:07;;;;;;;;;;;;;;;12.84;100.00;-25427.94;5054074;28;19947;-82
2022/05/24 08:48:38;;;;;;;;;;;;;;;13.26;100.00;-25439.78;5051463;28;19912;-81
2022/05/24 08:51:06;;;;;;;;;;;;;;;13.71;100.00;-25452.63;5052633;28;19970;-82
2022/05/24 08:53:34;;;;;;;;;;;;;;;14.24;100.00;-25467.66;5071154;28;19924;-77
2022/05/24 08:56:02;;;;;;;;;;;;;;;15.52;100.00;-25503.91;5053870;28;19916;-78
2022/05/24 08:58:30;;;;;;;;;;;;;;;15.82;100.00;-25512.34;5052995;28;19916;-78
2022/05/24 09:00:56;;;;;;;;;;;;;;;16.40;100.00;-25528.75;5052974;28;19966;-81
2022/05/24 09:03:24;;;;;;;;;;;;;;;16.79;100.00;-25539.78;5071186;28;19917;-77
2022/05/24 09:05:55;;;;;;;;;;;;;;;17.50;100.00;-25559.66;5052573;28;20006;-81
2022/05/24 09:08:25;;;;;;;;;;;;;;;17.49;100.00;-25559.50;5071190;28;19922;-81
2022/05/24 09:10:56;;;;;;;;;;;;;;;16.65;100.00;-25535.72;5053541;28;19917;-79
2022/05/24 09:13:25;;;;;;;;;;;;;;;16.65;100.00;-25535.72;5052359;28;19912;-78
2022/05/24 09:15:55;;;;;;;;;;;;;;;15.88;100.00;-25514.09;5052739;28;19943;-79
2022/05/24 09:18:40;;;;;;;;;;;;;;;15.02;100.00;-25489.66;5071596;28;19917;-80
2022/05/24 09:21:05;;;;;;;;;;;;;;;13.96;100.00;-25459.78;5052983;28;20024;-77
2022/05/24 09:23:30;;;;;;;;;;;;;;;13.51;100.00;-25446.94;5052635;28;19963;-76
2022/05/24 09:25:59;;;;;;;;;;;;;;;13.00;100.00;-25432.47;5053261;28;19917;-76
2022/05/24 09:28:45;;;;;;;;;;;;;;;12.56;100.00;-25420.06;5056647;28;19916;-76
2022/05/24 09:31:18;;;;;;;;;;;;;;;12.11;100.00;-25407.19;5075326;28;20407;-79
2022/05/24 09:33:44;;;;;;;;;;;;;;;12.16;100.00;-25408.66;5056597;28;20009;-78
2022/05/24 09:36:09;;;;;;;;;;;;;;;12.01;100.00;-25404.25;5056998;28;19921;-78
2022/05/24 09:38:37;;;;;;;;;;;;;;;12.13;100.00;-25407.78;5056626;28;19920;-80
2022/05/24 09:41:15;;;;;;;;;;;;;;;12.32;100.00;-25413.19;5074641;28;19917;-81
2022/05/24 09:43:41;;;;;;;;;;;;;;;12.85;100.00;-25428.09;5056319;28;19924;-81
2022/05/24 09:46:18;;;;;;;;;;;;;;;13.03;100.00;-25433.34;5056884;28;19917;-80
2022/05/24 09:48:56;;;;;;;;;;;;;;;13.42;100.00;-25444.47;5074252;28;19916;-77
2022/05/24 09:51:27;;;;;;;;;;;;;;;14.07;100.00;-25462.69;5056387;28;19917;-78
2022/05/24 09:53:53;;;;;;;;;;;;;;;14.41;100.00;-25472.31;5056804;28;19920;-78
2022/05/24 09:56:21;;;;;;;;;;;;;;;14.46;100.00;-25473.91;5056447;28;20339;-81
2022/05/24 09:59:07;;;;;;;;;;;;;;;14.37;100.00;-25471.28;5056210;28;20007;-82
2022/05/24 10:01:40;;;;;;;;;;;;;;;14.23;100.00;-25467.34;5056080;28;19943;-79
2022/05/24 10:04:26;;;;;;;;;;;;;;;13.89;100.00;-25457.72;5056712;28;19917;-80
2022/05/24 10:06:52;;;;;;;;;;;;;;;14.37;100.00;-25471.28;5055933;28;19920;-80
2022/05/24 10:09:27;;;;;;;;;;;;;;;14.26;100.00;-25468.09;5073867;28;19916;-78
2022/05/24 10:11:55;;;;;;;;;;;;;;;14.10;100.00;-25463.56;5055759;28;19986;-78
2022/05/24 10:14:31;;;;;;;;;;;;;;;13.97;100.00;-25459.91;5056529;28;19917;-78
2022/05/24 10:16:59;;;;;;;;;;;;;;;14.08;100.00;-25462.97;5055809;28;20280;-78
2022/05/24 10:19:33;;;;;;;;;;;;;;;14.29;100.00;-25469.09;5074228;28;19917;-78
2022/05/24 10:22:06;;;;;;;;;;;;;;;14.26;100.00;-25468.22;5056500;28;19927;-76
2022/05/24 10:24:50;;;;;;;;;;;;;;;14.45;100.00;-25473.63;5073489;28;19917;-78
2022/05/24 10:27:28;;;;;;;;;;;;;;;14.61;100.00;-25478.00;5073621;28;19920;-78
2022/05/24 10:30:19;;;;;;;;;;;;;;;14.90;100.00;-25486.31;5051957;28;19920;-79
2022/05/24 10:38:36;;;;;;;;;;;;;;;15.69;100.00;-25508.56;5053002;28;19924;-80
2022/05/24 10:41:11;;;;;;;;;;;;;;;16.18;100.00;-25522.38;5052704;28;19920;-78
2022/05/24 10:43:54;;;;;;;;;;;;;;;16.68;100.00;-25536.59;5053052;28;19924;-78
2022/05/24 10:46:26;;;;;;;;;;;;;;;16.28;100.00;-25525.28;5053435;28;19920;-77
2022/05/24 10:49:05;;;;;;;;;;;;;;;16.25;100.00;-25524.41;5053427;28;20479;-79
2022/05/24 10:51:47;;;;;;;;;;;;;;;15.70;100.00;-25509.00;5051984;28;20370;-79
2022/05/24 10:54:35;;;;;;;;;;;;;;;16.02;100.00;-25518.00;5052222;28;19917;-79
2022/05/24 10:57:04;;;;;;;;;;;;;;;16.19;100.00;-25522.66;5052324;28;20297;-80
2022/05/24 10:59:38;;;;;;;;;;;;;;;15.97;100.00;-25516.56;5051650;28;19920;-79
2022/05/24 11:02:10;;;;;;;;;;;;;;;15.62;100.00;-25506.66;5052008;28;19920;-79
2022/05/24 11:05:01;;;;;;;;;;;;;;;15.61;100.00;-25506.38;5052600;28;20377;-80
2022/05/24 11:07:27;;;;;;;;;;;;;;;15.75;100.00;-25510.31;5043718;28;20119;-79
2022/05/24 11:09:56;;;;;;;;;;;;;;;15.68;100.00;-25508.28;5052083;28;19917;-79
2022/05/24 11:12:24;;;;;;;;;;;;;;;15.57;100.00;-25503.44;5051802;28;19920;-79
2022/05/24 11:14:53;;;;;;;;;;;;;;;16.17;100.00;-25522.06;5051126;28;19982;-79
2022/05/24 11:17:20;;;;;;;;;;;;;;;16.74;100.00;-25538.34;5068775;28;19924;-79
2022/05/24 11:19:50;;;;;;;;;;;;;;;17.28;100.00;-24561.84;5052446;28;19921;-80
2022/05/24 11:22:18;;;;;;;;;;;;;;;17.05;100.00;-18614.59;5051320;28;19921;-80
2022/05/24 11:24:48;;;;;;;;;;;;;;;16.71;100.00;-20259.09;5052959;28;19917;-78
2022/05/24 11:27:15;;;;;;;;;;;;;;;16.30;100.00;-15300.88;5051535;28;20440;-79
2022/05/24 11:29:47;;;;;;;;;;;;;;;16.59;100.00;-16955.88;5056742;28;19928;-78
2022/05/24 11:32:18;;;;;;;;;;;;;;;17.00;100.00;-13986.75;5055091;28;19917;-79
2022/05/24 11:35:01;;;;;;;;;;;;;;;17.07;100.00;-3057.66;5054393;28;19999;-79
2022/05/24 11:37:31;;;;;;;;;;;;;;;17.03;100.00;20895.53;5038231;28;19967;-78
2022/05/24 11:40:17;;;;;;;;;;;;;;;17.42;100.00;37309.78;5072179;28;20386;-79
2022/05/24 11:42:46;;;;;;;;;;;;;;;17.82;100.00;65624.31;5053762;28;19948;-79
2022/05/24 11:45:31;;;;;;;;;;;;;;;18.05;100.00;92108.09;5055106;28;19917;-80
2022/05/24 11:47:58;;;;;;;;;;;;;;;18.19;100.00;133526.84;5054218;28;19916;-78
2022/05/24 11:51:01;;;;;;;;;;;;;;;18.11;100.00;147283.47;5054387;28;19917;-76
2022/05/24 11:53:40;;;;;;;;;;;;;;;17.26;100.00;147069.91;4993330;28;19985;-78
2022/05/24 11:56:08;;;;;;;;;;;;;;;16.96;100.00;146995.78;4993785;28;19921;-78
2022/05/24 11:58:33;;;;;;;;;;;;;;;17.02;100.00;147011.13;5035713;28;19922;-76
2022/05/24 12:01:01;;;;;;;;;;;;;;;16.87;100.00;146974.03;5071472;28;19924;-78
2022/05/24 12:09:18;;;;;;;;;;;;;;;16.77;100.00;146948.47;5071789;28;20280;-79
2022/05/24 12:11:44;;;;;;;;;;;;;;;16.72;100.00;146935.66;5053606;28;19912;-78
2022/05/24 12:14:14;;;;;;;;;;;;;;;16.54;100.00;146890.97;5053766;28;19917;-80
2022/05/24 12:17:01;;;;;;;;;;;;;;;16.58;100.00;146901.16;5052955;28;19912;-78
2022/05/24 12:19:42;;;;;;;;;;;;;;;16.45;100.00;146869.22;5042930;28;19950;-77
2022/05/24 12:22:07;;;;;;;;;;;;;;;17.20;100.00;147057.13;5052968;28;19925;-74
2022/05/24 12:24:35;;;;;;;;;;;;;;;17.12;100.00;147035.38;5052556;28;19916;-77
2022/05/24 12:27:10;;;;;;;;;;;;;;;16.88;100.00;146976.59;5053267;28;19923;-78
2022/05/24 12:29:35;;;;;;;;;;;;;;;17.05;100.00;147018.78;5052228;28;20145;-80
2022/05/24 12:32:04;;;;;;;;;;;;;;;17.19;100.00;147054.56;5071237;28;20030;-80
2022/05/24 12:34:30;;;;;;;;;;;;;;;17.13;100.00;147039.22;5053413;28;19916;-79
2022/05/24 12:36:56;;;;;;;;;;;;;;;17.08;100.00;147026.44;5070621;28;19958;-79
2022/05/24 12:39:22;;;;;;;;;;;;;;;16.67;100.00;146924.16;5053001;28;19941;-79
2022/05/24 12:41:52;;;;;;;;;;;;;;;16.58;100.00;146902.47;5053355;28;19912;-77
2022/05/24 12:44:19;;;;;;;;;;;;;;;16.45;100.00;146870.53;5052745;28;19923;-79
2022/05/24 12:46:57;;;;;;;;;;;;;;;16.33;100.00;146841.13;5053264;28;19931;-80
2022/05/24 12:49:24;;;;;;;;;;;;;;;16.60;100.00;146907.56;5054142;28;19917;-79
2022/05/24 12:51:54;;;;;;;;;;;;;;;16.55;100.00;146893.53;5053011;28;19921;-80
2022/05/24 12:54:27;;;;;;;;;;;;;;;16.64;100.00;146916.47;5053238;28;19917;-79
2022/05/24 12:56:53;;;;;;;;;;;;;;;16.88;100.00;146975.34;5053580;28;19916;-79
2022/05/24 12:59:26;;;;;;;;;;;;;;;16.96;100.00;146995.78;5070707;28;19935;-79
2022/05/24 13:01:54;;;;;;;;;;;;;;;16.98;100.00;147000.88;5071398;28;20319;-79
2022/05/24 13:04:23;;;;;;;;;;;;;;;16.86;100.00;146972.78;5074878;28;19981;-80
2022/05/24 13:06:48;;;;;;;;;;;;;;;16.62;100.00;146911.38;5057185;28;19977;-79
2022/05/24 13:09:23;;;;;;;;;;;;;;;16.58;100.00;146901.16;5075337;28;19920;-79
2022/05/24 13:11:53;;;;;;;;;;;;;;;16.40;100.00;146857.72;5074880;28;19920;-79
2022/05/24 13:14:38;;;;;;;;;;;;;;;16.64;100.00;146917.78;5057090;28;19939;-78